createdAt,value
2017-10-01T00:01:36.351Z,95454.22
2017-10-01T00:04:43.076Z,95454.29
2017-10-01T00:07:49.826Z,95453.04
2017-10-01T00:10:55.396Z,95459.11
2017-10-01T00:14:03.090Z,95462.66
2017-10-01T00:17:10.935Z,95461.77
2017-10-01T00:20:17.461Z,95467.38
2017-10-01T00:23:23.087Z,95462.64
2017-10-01T00:26:29.506Z,95467.90
2017-10-01T00:29:36.367Z,95470.02
2017-10-01T00:32:43.955Z,95477.02
2017-10-01T00:35:49.694Z,95476.27
2017-10-01T00:38:55.481Z,95473.73
2017-10-01T00:42:02.214Z,95489.15
2017-10-01T00:45:07.746Z,95490.14
2017-10-01T00:48:13.500Z,95490.13
2017-10-01T00:51:19.177Z,95486.12
2017-10-01T00:54:25.773Z,95495.43
2017-10-01T00:57:33.429Z,95492.45
2017-10-01T01:00:39.075Z,95494.89
2017-10-01T01:03:45.967Z,95497.36
2017-10-01T01:06:51.746Z,95499.19
2017-10-01T01:09:58.499Z,95499.72
2017-10-01T01:13:04.194Z,95505.60
2017-10-01T01:16:11.812Z,95505.40
2017-10-01T01:19:18.544Z,95518.03
2017-10-01T01:22:26.015Z,95510.36
2017-10-01T01:25:31.495Z,95511.45
2017-10-01T01:28:38.122Z,95512.54
2017-10-01T01:34:56.382Z,95518.05
2017-10-01T01:38:02.766Z,95514.59
2017-10-01T01:41:08.440Z,95518.21
2017-10-01T01:44:15.019Z,95524.36
2017-10-01T01:47:20.729Z,95530.39
2017-10-01T01:50:27.595Z,95519.91
2017-10-01T01:53:33.270Z,95532.02
2017-10-01T01:56:39.858Z,95529.80
2017-10-01T01:59:45.726Z,95536.08
2017-10-01T02:02:52.395Z,95537.99
2017-10-01T02:05:57.917Z,95539.28
2017-10-01T02:09:05.778Z,95546.08
2017-10-01T02:12:12.387Z,95541.48
2017-10-01T02:15:18.099Z,95548.55
2017-10-01T02:18:24.800Z,95543.72
2017-10-01T02:21:31.449Z,95547.88
2017-10-01T02:24:37.031Z,95558.30
2017-10-01T02:27:43.691Z,95557.49
2017-10-01T02:30:49.191Z,95560.28
2017-10-01T02:33:55.941Z,95571.23
2017-10-01T02:37:01.660Z,95574.17
2017-10-01T02:40:09.125Z,95579.48
2017-10-01T02:43:14.849Z,95576.97
2017-10-01T02:46:21.486Z,95581.83
2017-10-01T02:49:28.166Z,95586.77
2017-10-01T02:52:35.038Z,95586.11
2017-10-01T02:55:41.814Z,95589.36
2017-10-01T02:58:49.539Z,95590.55
2017-10-01T03:01:55.366Z,95592.89
2017-10-01T03:05:03.089Z,95592.41
2017-10-01T03:10:48.230Z,95592.62
2017-10-01T03:13:53.882Z,95598.05
2017-10-01T03:16:59.637Z,95598.60
2017-10-01T03:20:06.315Z,95603.32
2017-10-01T03:23:13.275Z,95606.45
2017-10-01T03:26:18.808Z,95600.79
2017-10-01T03:29:25.750Z,95597.65
2017-10-01T03:32:32.417Z,95597.01
2017-10-01T03:35:40.093Z,95597.33
2017-10-01T03:38:45.779Z,95599.28
2017-10-01T03:41:52.463Z,95595.72
2017-10-01T03:44:58.208Z,95594.58
2017-10-01T03:48:04.910Z,95597.76
2017-10-01T03:51:10.924Z,95612.74
2017-10-01T03:54:18.445Z,95610.80
2017-10-01T03:57:24.268Z,95618.62
2017-10-01T04:00:31.105Z,95614.95
2017-10-01T04:03:36.768Z,95623.19
2017-10-01T04:06:43.478Z,95628.75
2017-10-01T04:09:50.246Z,95629.27
2017-10-01T04:12:58.020Z,95622.82
2017-10-01T04:16:04.824Z,95628.81
2017-10-01T04:19:12.398Z,95626.92
2017-10-01T04:22:18.321Z,95631.63
2017-10-01T04:25:24.814Z,95622.03
2017-10-01T04:28:30.363Z,95631.66
2017-10-01T04:31:35.991Z,95629.38
2017-10-01T04:34:41.591Z,95622.14
2017-10-01T04:37:48.343Z,95626.50
2017-10-01T04:40:54.150Z,95635.64
2017-10-01T04:44:01.825Z,95632.23
2017-10-01T04:47:07.534Z,95635.86
2017-10-01T04:50:14.281Z,95634.39
2017-10-01T04:53:20.986Z,95632.70
2017-10-01T04:56:28.966Z,95636.92
2017-10-01T04:59:34.994Z,95647.02
2017-10-01T05:02:41.605Z,95644.07
2017-10-01T05:05:47.374Z,95642.40
2017-10-01T05:08:54.086Z,95638.22
2017-10-01T05:11:59.745Z,95639.19
2017-10-01T05:15:06.498Z,95639.38
2017-10-01T05:18:13.308Z,95651.33
2017-10-01T05:21:20.916Z,95649.33
2017-10-01T05:24:27.512Z,95662.14
2017-10-01T05:27:35.367Z,95656.89
2017-10-01T05:30:42.200Z,95661.30
2017-10-01T05:33:48.743Z,95666.78
2017-10-01T05:36:55.214Z,95675.33
2017-10-01T05:40:02.180Z,95673.77
2017-10-01T05:43:07.977Z,95670.72
2017-10-01T05:46:13.979Z,95673.88
2017-10-01T05:49:20.505Z,95679.21
2017-10-01T05:52:27.247Z,95683.70
2017-10-01T05:55:33.888Z,95683.23
2017-10-01T05:58:40.761Z,95693.30
2017-10-01T06:01:46.357Z,95702.98
2017-10-01T06:04:53.930Z,95708.72
2017-10-01T06:07:59.649Z,95708.31
2017-10-01T06:11:05.245Z,95714.53
2017-10-01T06:14:10.959Z,95713.20
2017-10-01T06:17:18.531Z,95718.03
2017-10-01T06:20:25.201Z,95720.63
2017-10-01T06:23:31.038Z,95722.84
2017-10-01T06:26:37.738Z,95722.92
2017-10-01T06:29:44.630Z,95724.20
2017-10-01T06:32:51.205Z,95728.02
2017-10-01T06:35:56.934Z,95730.91
2017-10-01T06:39:03.543Z,95735.77
2017-10-01T06:42:10.006Z,95733.51
2017-10-01T06:45:15.894Z,95733.12
2017-10-01T06:48:22.659Z,95729.77
2017-10-01T06:51:28.414Z,95737.64
2017-10-01T06:54:35.161Z,95741.78
2017-10-01T06:57:40.701Z,95740.84
2017-10-01T07:00:46.330Z,95739.16
2017-10-01T07:03:52.134Z,95748.16
2017-10-01T07:07:04.790Z,95745.21
2017-10-01T07:10:11.587Z,95743.38
2017-10-01T07:13:19.235Z,95748.41
2017-10-01T07:16:24.953Z,95749.36
2017-10-01T07:19:30.887Z,95755.47
2017-10-01T07:22:36.754Z,95757.06
2017-10-01T07:25:43.571Z,95756.57
2017-10-01T07:28:49.196Z,95764.02
2017-10-01T07:31:54.918Z,95761.05
2017-10-01T07:35:00.699Z,95762.03
2017-10-01T07:38:07.360Z,95771.94
2017-10-01T07:41:13.020Z,95768.71
2017-10-01T07:44:19.689Z,95767.31
2017-10-01T07:47:25.395Z,95770.66
2017-10-01T07:50:32.344Z,95775.28
2017-10-01T07:53:37.853Z,95776.52
2017-10-01T07:56:44.577Z,95775.45
2017-10-01T07:59:50.436Z,95781.59
2017-10-01T08:02:57.078Z,95775.53
2017-10-01T08:06:02.842Z,95776.33
2017-10-01T08:09:09.353Z,95781.97
2017-10-01T08:12:15.143Z,95782.30
2017-10-01T08:15:20.798Z,95776.34
2017-10-01T08:18:26.355Z,95780.20
2017-10-01T08:21:35.088Z,95776.30
2017-10-01T08:24:49.991Z,95783.52
2017-10-01T08:28:00.125Z,95779.58
2017-10-01T08:31:15.122Z,95786.98
2017-10-01T08:34:37.947Z,95790.42
2017-10-01T08:37:43.561Z,95792.23
2017-10-01T08:40:51.221Z,95793.86
2017-10-01T08:43:58.096Z,95788.69
2017-10-01T08:47:04.806Z,95793.03
2017-10-01T08:50:11.518Z,95787.34
2017-10-01T08:53:17.262Z,95788.28
2017-10-01T09:04:10.848Z,95803.02
2017-10-01T09:07:48.639Z,95794.41
2017-10-01T09:14:30.431Z,95792.00
2017-10-01T09:17:39.907Z,95798.93
2017-10-01T09:21:01.303Z,95794.84
2017-10-01T09:24:16.969Z,95790.27
2017-10-01T09:27:31.480Z,95789.45
2017-10-01T09:30:50.012Z,95786.66
2017-10-01T09:34:14.661Z,95787.29
2017-10-01T09:37:26.010Z,95786.63
2017-10-01T09:40:35.784Z,95788.23
2017-10-01T09:47:05.899Z,95783.98
2017-10-01T09:50:17.828Z,95782.64
2017-10-01T09:53:23.280Z,95786.56
2017-10-01T09:56:39.143Z,95782.59
2017-10-01T09:59:55.997Z,95782.25
2017-10-01T10:03:05.081Z,95783.83
2017-10-01T10:06:19.646Z,95783.95
2017-10-01T10:09:28.156Z,95781.16
2017-10-01T10:12:42.474Z,95797.55
2017-10-01T10:15:48.257Z,95786.95
2017-10-01T10:19:06.950Z,95795.60
2017-10-01T10:22:31.389Z,95799.44
2017-10-01T10:25:52.830Z,95793.75
2017-10-01T10:29:00.522Z,95794.55
2017-10-01T10:32:17.292Z,95796.86
2017-10-01T10:39:01.498Z,95801.91
2017-10-01T10:45:30.888Z,95816.42
2017-10-01T10:52:07.006Z,95815.56
2017-10-01T10:55:12.933Z,95807.73
2017-10-01T11:05:28.951Z,95789.62
2017-10-01T11:12:02.372Z,95795.69
2017-10-01T11:18:36.752Z,95796.05
2017-10-01T11:21:46.177Z,95801.41
2017-10-01T11:24:53.079Z,95795.08
2017-10-01T11:27:58.622Z,95791.28
2017-10-01T11:31:07.182Z,95787.95
2017-10-01T11:34:15.890Z,95795.37
2017-10-01T11:37:23.658Z,95799.17
2017-10-01T11:40:31.223Z,95792.45
2017-10-01T11:43:38.921Z,95791.09
2017-10-01T11:46:48.595Z,95797.33
2017-10-01T11:49:54.217Z,95795.02
2017-10-01T11:52:59.912Z,95789.85
2017-10-01T11:56:05.620Z,95794.64
2017-10-01T11:59:16.304Z,95805.09
2017-10-01T12:02:21.930Z,95803.77
2017-10-01T12:05:29.517Z,95796.65
2017-10-01T12:08:43.161Z,95796.81
2017-10-01T12:11:50.921Z,95790.88
2017-10-01T12:18:19.005Z,95792.48
2017-10-01T12:21:28.701Z,95792.88
2017-10-01T12:24:35.325Z,95792.48
2017-10-01T12:27:42.960Z,95792.78
2017-10-01T12:30:50.616Z,95789.04
2017-10-01T12:33:59.397Z,95789.57
2017-10-01T12:39:55.885Z,95798.20
2017-10-01T12:43:03.841Z,95789.22
2017-10-01T12:46:11.516Z,95800.27
2017-10-01T12:49:23.402Z,95803.13
2017-10-01T12:52:29.808Z,95801.32
2017-10-01T12:59:25.850Z,95787.38
2017-10-01T13:02:33.656Z,95798.56
2017-10-01T13:05:57.787Z,95797.75
2017-10-01T13:09:14.781Z,95797.39
2017-10-01T13:12:21.201Z,95790.41
2017-10-01T13:15:34.838Z,95791.65
2017-10-01T13:18:49.160Z,95805.69
2017-10-01T13:21:56.062Z,95794.83
2017-10-01T13:25:06.852Z,95793.31
2017-10-01T13:28:18.841Z,95786.37
2017-10-01T13:31:30.518Z,95789.16
2017-10-01T13:34:44.273Z,95782.74
2017-10-01T13:37:56.898Z,95782.86
2017-10-01T13:41:02.710Z,95779.22
2017-10-01T13:44:08.261Z,95780.11
2017-10-01T13:47:15.205Z,95773.96
2017-10-01T13:50:22.040Z,95776.14
2017-10-01T13:53:27.722Z,95782.29
2017-10-01T13:56:53.505Z,95777.56
2017-10-01T13:59:59.283Z,95771.06
2017-10-01T14:03:05.933Z,95772.98
2017-10-01T14:06:16.575Z,95771.29
2017-10-01T14:09:26.431Z,95765.64
2017-10-01T14:12:33.045Z,95766.88
2017-10-01T14:15:39.666Z,95761.91
2017-10-01T14:18:46.682Z,95754.11
2017-10-01T14:21:57.258Z,95760.44
2017-10-01T14:25:03.972Z,95758.31
2017-10-01T14:28:15.498Z,95757.20
2017-10-01T14:31:28.279Z,95753.48
2017-10-01T14:34:37.859Z,95749.27
2017-10-01T14:37:44.837Z,95743.20
2017-10-01T14:44:14.611Z,95744.30
2017-10-01T14:47:23.385Z,95741.70
2017-10-01T14:50:35.041Z,95738.34
2017-10-01T14:53:43.924Z,95736.82
2017-10-01T14:56:50.523Z,95737.82
2017-10-01T15:00:02.344Z,95730.44
2017-10-01T15:03:13.992Z,95737.73
2017-10-01T15:06:21.684Z,95733.61
2017-10-01T15:09:27.284Z,95729.56
2017-10-01T15:12:39.363Z,95731.13
2017-10-01T15:15:46.128Z,95732.06
2017-10-01T15:18:55.693Z,95729.82
2017-10-01T15:22:02.234Z,95724.06
2017-10-01T15:25:15.996Z,95733.07
2017-10-01T15:28:21.645Z,95730.55
2017-10-01T15:31:28.050Z,95733.09
2017-10-01T15:34:33.376Z,95731.33
2017-10-01T15:37:41.048Z,95730.38
2017-10-01T15:40:46.669Z,95733.34
2017-10-01T15:43:53.210Z,95731.80
2017-10-01T15:46:58.831Z,95728.59
2017-10-01T15:50:06.395Z,95733.06
2017-10-01T15:53:13.121Z,95726.78
2017-10-01T15:56:22.938Z,95732.83
2017-10-01T15:59:36.467Z,95733.30
2017-10-01T16:02:49.054Z,95730.80
2017-10-01T16:06:02.897Z,95735.60
2017-10-01T16:09:09.509Z,95730.27
2017-10-01T16:12:16.242Z,95728.89
2017-10-01T16:15:25.702Z,95725.75
2017-10-01T16:18:40.478Z,95727.78
2017-10-01T16:21:53.112Z,95726.05
2017-10-01T16:24:58.901Z,95725.25
2017-10-01T16:41:13.470Z,95717.62
2017-10-01T16:44:20.655Z,95716.36
2017-10-01T16:47:39.239Z,95723.22
2017-10-01T16:50:45.832Z,95723.86
2017-10-01T16:53:54.692Z,95731.28
2017-10-01T16:57:01.124Z,95730.92
2017-10-01T17:00:06.857Z,95725.79
2017-10-01T17:03:14.382Z,95726.49
2017-10-01T17:06:21.245Z,95726.12
2017-10-01T17:09:33.781Z,95733.80
2017-10-01T17:12:39.537Z,95730.90
2017-10-01T17:15:45.110Z,95732.33
2017-10-01T17:18:50.834Z,95739.64
2017-10-01T17:22:14.084Z,95743.34
2017-10-01T17:25:19.678Z,95740.78
2017-10-01T17:28:32.561Z,95743.70
2017-10-01T17:31:38.134Z,95733.59
2017-10-01T17:35:06.895Z,95732.11
2017-10-01T17:38:18.279Z,95732.94
2017-10-01T17:41:36.676Z,95727.97
2017-10-01T17:44:42.276Z,95724.14
2017-10-01T17:47:51.078Z,95725.37
2017-10-01T17:50:57.693Z,95728.33
2017-10-01T17:54:04.267Z,95723.67
2017-10-01T17:57:10.926Z,95719.75
2017-10-01T18:00:18.539Z,95713.00
2017-10-01T18:03:26.320Z,95716.78
2017-10-01T18:06:33.924Z,95713.02
2017-10-01T18:09:40.762Z,95709.95
2017-10-01T18:12:48.462Z,95706.59
2017-10-01T18:15:54.182Z,95710.06
2017-10-01T18:19:01.058Z,95712.66
2017-10-01T18:22:07.611Z,95706.91
2017-10-01T18:25:14.253Z,95704.39
2017-10-01T18:28:21.343Z,95710.40
2017-10-01T18:31:26.882Z,95714.76
2017-10-01T18:34:33.341Z,95712.59
2017-10-01T18:37:39.507Z,95703.67
2017-10-01T18:40:45.998Z,95706.12
2017-10-01T18:43:51.205Z,95703.94
2017-10-01T18:46:57.089Z,95710.78
2017-10-01T18:56:02.429Z,95712.38
2017-10-01T18:59:07.861Z,95712.86
2017-10-01T19:02:17.612Z,95710.69
2017-10-01T19:05:23.322Z,95715.77
2017-10-01T19:08:30.148Z,95717.47
2017-10-01T19:11:36.848Z,95715.81
2017-10-01T19:14:43.558Z,95715.16
2017-10-01T19:17:49.331Z,95716.80
2017-10-01T19:20:55.934Z,95708.16
2017-10-01T19:24:01.842Z,95717.73
2017-10-01T19:27:08.514Z,95711.83
2017-10-01T19:30:14.953Z,95706.84
2017-10-01T19:33:22.085Z,95699.23
2017-10-01T19:36:29.963Z,95696.14
2017-10-01T19:39:37.544Z,95692.48
2017-10-01T19:42:44.069Z,95696.16
2017-10-01T19:45:50.867Z,95694.64
2017-10-01T19:48:56.526Z,95704.06
2017-10-01T19:52:02.230Z,95698.31
2017-10-01T19:55:08.035Z,95708.27
2017-10-01T20:01:13.323Z,95708.73
2017-10-01T20:03:42.539Z,95708.66
2017-10-01T20:06:29.248Z,95706.00
2017-10-01T20:15:47.995Z,95698.25
2017-10-01T20:18:17.993Z,95692.90
2017-10-01T20:20:47.867Z,95697.72
2017-10-01T20:23:17.529Z,95694.80
2017-10-01T20:25:47.497Z,95695.95
2017-10-01T20:28:17.511Z,95694.37
2017-10-01T20:30:48.777Z,95694.30
2017-10-01T20:33:23.020Z,95690.74
2017-10-01T20:41:10.951Z,95694.69
2017-10-01T20:43:40.109Z,95692.66
2017-10-01T20:46:10.552Z,95693.17
2017-10-01T20:48:40.416Z,95687.84
2017-10-01T20:51:10.662Z,95686.20
2017-10-01T20:53:41.241Z,95683.43
2017-10-01T20:56:10.283Z,95672.29
2017-10-01T20:58:42.388Z,95678.40
2017-10-01T21:01:15.050Z,95666.73
2017-10-01T21:03:45.974Z,95666.02
2017-10-01T21:06:16.464Z,95663.77
2017-10-01T21:08:48.835Z,95651.39
2017-10-01T21:11:19.786Z,95652.16
2017-10-01T21:13:49.517Z,95642.91
2017-10-01T21:16:19.158Z,95651.45
2017-10-01T21:18:48.791Z,95633.89
2017-10-01T21:21:18.636Z,95634.67
2017-10-01T21:23:47.985Z,95629.30
